Time;durP1;ratioP1;P1;durP2;ratioP2;P2;SDS_P1;SDS_P2;PMS_P1;PMS_P2;Temp;Humidity;BMP_temperature;BMP_pressure;BME280_temperature;BME280_humidity;BME280_pressure;Samples;Min_cycle;Max_cycle;Signal;HPM_P1;HPM_P2
2022/12/26 00:02:19;;;;;;;;;;;7.90;99.90;;;6.75;100.00;95770.91;10563435;27;2101;-77
2022/12/26 00:07:24;;;;;;;;;;;7.80;99.90;;;6.69;100.00;95763.91;10564713;27;1910;-76
2022/12/26 00:12:30;;;;;;;;;;;7.70;99.90;;;6.81;100.00;95771.75;10558329;27;2110;-76
2022/12/26 00:17:38;;;;;;;;;;;7.80;99.90;;;6.80;100.00;95773.63;10567700;27;2097;-77
2022/12/26 00:22:43;;;;;;;;;;;7.80;99.90;;;6.85;100.00;95773.69;10588068;27;2146;-76
2022/12/26 00:27:49;;;;;;;;;;;7.80;99.90;;;6.73;100.00;95770.34;10580978;27;4441;-76
2022/12/26 00:33:02;;;;;;;;;;;7.80;99.90;;;6.83;100.00;95777.69;10583017;27;1993;-77
2022/12/26 00:38:08;;;;;;;;;;;7.70;99.90;;;6.83;100.00;95783.03;10556533;27;2046;-76
2022/12/26 00:43:39;;;;;;;;;;;7.70;99.90;;;6.80;100.00;95773.63;10567855;27;2063;-76
2022/12/26 00:48:43;;;;;;;;;;;7.70;99.90;;;6.59;100.00;95774.44;10543933;28;2169;-76
2022/12/26 00:53:56;;;;;;;;;;;7.60;99.90;;;6.55;100.00;95778.66;10546839;28;1954;-76
2022/12/26 00:59:00;;;;;;;;;;;7.60;99.90;;;6.52;100.00;95785.31;10565974;27;2012;-77
2022/12/26 01:04:09;;;;;;;;;;;7.50;99.90;;;6.46;100.00;95783.63;10581397;27;1963;-76
2022/12/26 01:09:14;;;;;;;;;;;7.50;99.90;;;6.39;100.00;95789.16;10566223;28;2116;-76
2022/12/26 01:14:17;;;;;;;;;;;7.50;99.90;;;6.30;100.00;95790.66;10579972;28;1883;-75
2022/12/26 01:19:21;;;;;;;;;;;7.40;99.90;;;6.19;100.00;95794.22;10569145;28;1923;-76
2022/12/26 01:24:31;;;;;;;;;;;7.30;99.90;;;6.09;100.00;95794.06;10574697;28;2001;-76
2022/12/26 01:29:38;;;;;;;;;;;7.20;99.90;;;6.03;100.00;95800.38;10576949;28;4576;-76
2022/12/26 01:34:45;;;;;;;;;;;7.10;99.90;;;6.09;100.00;95802.06;10566295;27;1893;-75
2022/12/26 01:39:54;;;;;;;;;;;7.00;99.90;;;5.94;100.00;95810.66;10593705;27;2007;-76
2022/12/26 01:45:03;;;;;;;;;;;7.00;99.90;;;5.76;100.00;95816.19;10571240;27;1964;-76
2022/12/26 01:50:08;;;;;;;;;;;7.00;99.90;;;5.70;100.00;95813.44;10585384;27;1921;-76
2022/12/26 01:55:19;;;;;;;;;;;6.80;99.90;;;5.61;100.00;95824.75;10597599;27;1839;-76
2022/12/26 02:00:27;;;;;;;;;;;6.80;99.90;;;5.57;100.00;95823.63;10583040;27;2077;-76
2022/12/26 02:05:34;;;;;;;;;;;6.70;99.90;;;5.47;100.00;95818.09;10558580;27;2078;-75
2022/12/26 02:10:41;;;;;;;;;;;6.60;99.90;;;5.48;100.00;95825.06;10576006;28;1921;-77
2022/12/26 02:15:48;;;;;;;;;;;;;;;5.46;100.00;95821.81;10591188;27;1993;-76
2022/12/26 02:20:53;;;;;;;;;;;;;;;5.54;100.00;95818.78;10574887;28;1942;-77
2022/12/26 02:25:58;;;;;;;;;;;;;;;5.53;100.00;95822.47;10557753;27;1917;-76
2022/12/26 02:31:04;;;;;;;;;;;;;;;5.46;100.00;95816.47;10560448;27;4697;-75
2022/12/26 02:36:09;;;;;;;;;;;;;;;5.46;100.00;95819.13;10583531;27;2053;-76
2022/12/26 02:41:12;;;;;;;;;;;;;;;5.42;100.00;95813.50;10571305;27;2015;-75
2022/12/26 03:13:22;;;;;;;;;;;;;;;5.88;100.00;95793.72;10555805;27;1933;-76
2022/12/26 03:18:26;;;;;;;;;;;;;;;5.89;100.00;95784.66;10557260;27;2117;-76
2022/12/26 03:23:54;;;;;;;;;;;;;;;5.92;100.00;95800.22;10573189;27;1971;-76
2022/12/26 03:34:28;;;;;;;;;;;;;;;6.01;100.00;95797.16;10549711;27;2066;-76
2022/12/26 04:44:33;;;;;;;;;;;6.80;99.90;;;5.50;100.00;95830.97;10547190;28;2009;-76
2022/12/26 04:55:00;;;;;;;;;;;6.60;99.90;;;5.48;100.00;95830.41;10561848;27;1984;-76
2022/12/26 05:00:08;;;;;;;;;;;6.60;99.90;;;5.42;100.00;95824.16;10550607;28;1929;-75
2022/12/26 05:10:35;;;;;;;;;;;6.50;99.90;;;5.31;100.00;95828.50;10554481;28;2070;-77
2022/12/26 05:31:45;;;;;;;;;;;6.40;99.90;;;5.17;100.00;95855.69;10562354;28;2061;-76
2022/12/26 05:36:48;;;;;;;;;;;6.30;99.90;;;5.18;100.00;95851.97;10551304;28;1953;-76
2022/12/26 05:41:56;;;;;;;;;;;6.30;99.90;;;5.16;100.00;95860.19;10568632;28;2029;-76
2022/12/26 05:47:00;;;;;;;;;;;6.30;99.90;;;5.14;100.00;95855.09;10583656;28;1913;-76
2022/12/26 05:52:06;;;;;;;;;;;6.30;99.90;;;5.33;100.00;95861.03;10552326;28;2113;-75
2022/12/26 05:57:15;;;;;;;;;;;6.30;99.90;;;5.52;100.00;95871.50;10545443;28;1935;-75
2022/12/26 06:02:20;;;;;;;;;;;6.40;99.90;;;5.62;100.00;95853.84;10572806;28;1979;-78
2022/12/26 06:07:25;;;;;;;;;;;6.60;99.90;;;5.68;100.00;95858.22;10566029;28;1847;-77
2022/12/26 06:12:29;;;;;;;;;;;6.60;99.90;;;5.64;100.00;95853.59;10541398;28;2189;-77
2022/12/26 06:17:33;;;;;;;;;;;6.70;99.90;;;5.72;100.00;95845.19;10567165;28;2187;-75
2022/12/26 06:22:43;;;;;;;;;;;6.70;99.90;;;5.76;100.00;95838.34;10574068;27;1912;-75
2022/12/26 06:27:48;;;;;;;;;;;6.80;99.90;;;5.85;100.00;95842.25;10576182;27;4433;-76
2022/12/26 06:32:54;;;;;;;;;;;6.90;99.90;;;5.92;100.00;95842.91;10576545;27;1997;-75
2022/12/26 06:37:58;;;;;;;;;;;6.90;99.90;;;6.02;100.00;95846.78;10552297;27;1973;-75
2022/12/26 06:43:03;;;;;;;;;;;6.90;99.90;;;6.07;100.00;95839.69;10554680;27;2003;-76
2022/12/26 06:48:06;;;;;;;;;;;7.00;99.90;;;6.42;100.00;95812.69;10582690;27;1914;-76
2022/12/26 06:53:12;;;;;;;;;;;7.20;99.90;;;6.41;100.00;95823.63;10556412;27;2054;-76
2022/12/26 06:58:22;;;;;;;;;;;7.40;99.90;;;6.38;100.00;95830.25;10571563;27;1930;-77
2022/12/26 07:03:39;;;;;;;;;;;7.30;99.90;;;6.27;100.00;95843.69;10566021;27;2068;-76
2022/12/26 07:09:06;;;;;;;;;;;7.30;99.90;;;6.23;100.00;95854.03;10553034;27;1969;-76
2022/12/26 07:14:24;;;;;;;;;;;7.20;99.90;;;6.23;100.00;95854.88;10556675;27;2067;-76
2022/12/26 07:19:33;;;;;;;;;;;7.10;99.90;;;6.32;100.00;95831.25;10568750;27;1917;-76
2022/12/26 07:24:39;;;;;;;;;;;7.30;99.90;;;6.35;100.00;95830.75;10579737;27;2238;-77
2022/12/26 07:29:44;;;;;;;;;;;7.20;99.90;;;6.46;100.00;95826.34;10567899;27;4453;-75
2022/12/26 07:34:54;;;;;;;;;;;7.30;99.90;;;6.57;100.00;95832.66;10546801;28;1892;-76
2022/12/26 07:39:59;;;;;;;;;;;7.40;99.90;;;6.70;100.00;95834.97;10589362;27;1897;-75
2022/12/26 07:45:05;;;;;;;;;;;7.50;99.90;;;6.86;100.00;95842.09;10560995;27;1964;-76
2022/12/26 07:50:14;;;;;;;;;;;7.60;99.90;;;6.88;100.00;95841.88;10573836;27;2078;-76
2022/12/26 07:55:21;;;;;;;;;;;7.70;99.90;;;7.00;100.00;95843.38;10568644;27;1926;-75
2022/12/26 08:00:25;;;;;;;;;;;7.80;99.90;;;7.14;100.00;95840.31;10552268;28;1878;-75
2022/12/26 08:05:35;;;;;;;;;;;8.00;99.90;;;7.36;100.00;95841.09;10546746;27;1967;-75
2022/12/26 08:10:46;;;;;;;;;;;8.10;99.90;;;7.47;100.00;95837.47;10550479;27;1948;-76
2022/12/26 08:15:51;;;;;;;;;;;8.20;99.90;;;7.54;100.00;95848.75;10552177;27;2085;-75
2022/12/26 08:20:55;;;;;;;;;;;8.30;99.90;;;7.47;100.00;95844.69;10570434;27;2020;-75
2022/12/26 08:25:59;;;;;;;;;;;8.40;99.90;;;7.47;100.00;95848.16;10577428;27;1892;-75
2022/12/26 08:31:08;;;;;;;;;;;8.40;99.90;;;7.41;100.00;95843.81;10572232;27;4593;-76
2022/12/26 08:36:15;;;;;;;;;;;8.30;99.90;;;7.56;100.00;95838.59;10568738;27;2096;-75
2022/12/26 08:41:22;;;;;;;;;;;8.40;99.90;;;7.70;100.00;95840.88;10561833;27;1913;-75
2022/12/26 08:46:26;;;;;;;;;;;8.50;99.90;;;7.72;100.00;95838.78;10557582;28;2084;-76
2022/12/26 08:51:32;;;;;;;;;;;8.50;99.90;;;7.85;100.00;95843.72;10546812;27;2188;-76
2022/12/26 08:56:39;;;;;;;;;;;8.70;99.90;;;8.01;100.00;95837.41;10545721;27;1903;-75
2022/12/26 09:01:44;;;;;;;;;;;8.70;99.90;;;8.12;100.00;95838.31;10536666;28;2003;-77
2022/12/26 09:06:55;;;;;;;;;;;8.90;99.90;;;8.31;100.00;95825.31;10553346;28;1942;-77
2022/12/26 09:12:02;;;;;;;;;;;9.00;99.90;;;8.42;100.00;95824.34;10583012;27;1949;-77
2022/12/26 09:17:08;;;;;;;;;;;9.20;99.90;;;8.64;100.00;95822.34;10589225;28;2087;-75
2022/12/26 09:27:40;;;;;;;;;;;9.60;99.90;;;9.28;100.00;95826.63;10557093;28;4533;-77
2022/12/26 09:32:49;;;;;;;;;;;9.80;99.90;;;9.52;100.00;95821.59;10557866;28;1982;-77
2022/12/26 09:37:52;;;;;;;;;;;10.10;99.90;;;9.74;100.00;95808.75;10553232;28;2154;-77
2022/12/26 09:42:57;;;;;;;;;;;10.40;99.90;;;9.92;100.00;95814.66;10576804;27;1961;-77
2022/12/26 09:48:01;;;;;;;;;;;10.60;99.90;;;10.16;100.00;95826.47;10549420;28;2088;-77
2022/12/26 09:53:07;;;;;;;;;;;10.70;99.90;;;10.29;100.00;95820.59;10549863;27;1907;-77
2022/12/26 09:58:15;;;;;;;;;;;10.90;99.90;;;10.43;100.00;95820.03;10568677;27;1941;-77
2022/12/26 10:03:20;;;;;;;;;;;11.10;99.90;;;10.65;100.00;95815.16;10557389;28;1977;-76
2022/12/26 10:08:24;;;;;;;;;;;11.20;99.90;;;10.71;100.00;95808.69;10594013;27;2056;-76
2022/12/26 10:13:31;;;;;;;;;;;;;;;10.80;100.00;95806.25;10545323;27;2124;-77
2022/12/26 10:18:35;;;;;;;;;;;;;;;10.92;100.00;95795.19;10587861;27;1958;-76
2022/12/26 10:23:40;;;;;;;;;;;;;;;11.01;100.00;95780.09;10575264;27;1972;-76
2022/12/26 10:28:44;;;;;;;;;;;11.60;99.90;;;10.98;100.00;95777.94;10557052;27;4453;-77
2022/12/26 10:33:51;;;;;;;;;;;11.70;99.90;;;11.11;100.00;95782.72;10545875;28;2029;-78
2022/12/26 10:38:59;;;;;;;;;;;;;;;11.16;100.00;95777.31;10570845;27;2004;-76
2022/12/26 10:44:04;;;;;;;;;;;;;;;11.53;100.00;95778.72;10549346;28;1983;-77
2022/12/26 10:49:18;;;;;;;;;;;;;;;11.70;100.00;95783.72;10574123;27;1898;-76
2022/12/26 10:54:36;;;;;;;;;;;;;;;11.90;100.00;95789.00;10569418;27;1942;-76
2022/12/26 10:59:40;;;;;;;;;;;;;;;12.23;100.00;95782.00;10558789;27;2170;-75
2022/12/26 11:04:55;;;;;;;;;;;12.80;99.90;;;12.57;100.00;95781.13;10572826;27;1981;-75
2022/12/26 11:10:28;;;;;;;;;;;;;;;12.87;100.00;95779.97;10573355;27;2088;-78
2022/12/26 11:15:44;;;;;;;;;;;;;;;13.01;100.00;95777.38;10577897;27;2048;-76
2022/12/26 11:20:56;;;;;;;;;;;;;;;13.18;100.00;95781.22;10536651;27;2023;-76
2022/12/26 11:26:01;;;;;;;;;;;;;;;13.48;100.00;95771.13;10560177;27;2072;-77
2022/12/26 11:31:05;;;;;;;;;;;;;;;13.38;100.00;95780.19;10567419;27;4509;-77
2022/12/26 11:36:09;;;;;;;;;;;;;;;13.21;100.00;95786.06;10580017;27;1931;-77
2022/12/26 11:41:35;;;;;;;;;;;;;;;13.19;100.00;95784.72;10546582;27;2129;-76
2022/12/26 11:46:42;;;;;;;;;;;;;;;13.20;100.00;95797.13;10572167;27;1986;-76
2022/12/26 11:51:50;;;;;;;;;;;;;;;13.35;100.00;95788.03;10570139;27;1968;-76
2022/12/26 11:57:02;;;;;;;;;;;;;;;13.33;100.00;95796.44;10570395;27;1940;-75
2022/12/26 12:02:23;;;;;;;;;;;;;;;13.12;100.00;95811.25;10553738;27;1993;-77
2022/12/26 12:12:50;;;;;;;;;;;;;;;12.72;100.00;95837.59;10543152;27;1968;-75
2022/12/26 12:17:55;;;;;;;;;;;;;;;12.28;100.00;95846.63;10569112;27;1990;-75
2022/12/26 12:23:02;;;;;;;;;;;;;;;11.89;100.00;95877.06;10546574;28;1985;-78
2022/12/26 12:28:12;;;;;;;;;;;;;;;11.16;100.00;95887.63;10570112;27;4469;-77
2022/12/26 12:33:17;;;;;;;;;;;;;;;10.33;100.00;95906.03;10594590;27;1979;-77
2022/12/26 12:38:23;;;;;;;;;;;;;;;9.85;100.00;95918.81;10581975;27;2144;-78
2022/12/26 12:43:34;;;;;;;;;;;;;;;9.57;100.00;95931.63;10570931;27;1960;-78
2022/12/26 12:48:43;;;;;;;;;;;;;;;9.39;100.00;95937.47;10553356;27;1961;-77
2022/12/26 12:53:51;;;;;;;;;;;;;;;9.28;100.00;95939.28;10532559;27;2106;-78
2022/12/26 12:58:57;;;;;;;;;;;;;;;9.30;100.00;95947.09;10568468;27;2010;-78
2022/12/26 13:04:08;;;;;;;;;;;;;;;9.29;100.00;95956.19;10575917;27;2273;-77
2022/12/26 13:09:14;;;;;;;;;;;;;;;9.20;100.00;95978.16;10571560;27;1969;-79
2022/12/26 13:14:21;;;;;;;;;;;;;;;9.09;100.00;95979.13;10547605;28;1911;-77
2022/12/26 13:19:28;;;;;;;;;;;;;;;9.01;100.00;95978.81;10552681;28;2010;-77
2022/12/26 13:24:38;;;;;;;;;;;;;;;8.87;100.00;95971.25;10592750;27;1972;-76
2022/12/26 13:29:44;;;;;;;;;;;;;;;8.83;100.00;95972.00;10596402;27;4528;-76
2022/12/26 13:34:53;;;;;;;;;;;;;;;8.70;100.00;95992.00;10562159;27;1982;-78
2022/12/26 13:40:06;;;;;;;;;;;;;;;8.66;100.00;95994.41;10551913;27;1924;-77
2022/12/26 13:45:18;;;;;;;;;;;;;;;8.63;100.00;95994.91;10579804;27;1965;-77
2022/12/26 13:50:30;;;;;;;;;;;;;;;8.61;100.00;95994.34;10586883;27;1886;-76
2022/12/26 13:55:34;;;;;;;;;;;;;;;8.61;100.00;95996.22;10574782;27;1843;-76
2022/12/26 14:00:41;;;;;;;;;;;;;;;8.53;100.00;96002.88;10548589;27;2150;-76
2022/12/26 14:06:01;;;;;;;;;;;;;;;8.57;100.00;96013.88;10583810;27;1914;-77
2022/12/26 14:11:09;;;;;;;;;;;;;;;8.50;100.00;96015.97;10579543;27;1921;-77
2022/12/26 14:16:17;;;;;;;;;;;;;;;8.41;100.00;96012.94;10573080;27;1968;-76
2022/12/26 14:21:28;;;;;;;;;;;;;;;8.37;100.00;96028.69;10571981;27;1887;-77
2022/12/26 14:26:42;;;;;;;;;;;;;;;8.33;100.00;96034.78;10574818;27;4535;-77
2022/12/26 14:31:54;;;;;;;;;;;;;;;8.25;100.00;96040.59;10574246;27;1897;-77
2022/12/26 14:47:50;;;;;;;;;;;;;;;8.11;100.00;96050.88;10578097;27;1918;-77
2022/12/26 14:52:59;;;;;;;;;;;;;;;8.05;100.00;96057.25;10582103;27;2279;-78
2022/12/26 14:58:04;;;;;;;;;;;;;;;8.02;100.00;96063.13;10563808;27;2145;-75
2022/12/26 15:03:09;;;;;;;;;;;;;;;7.97;100.00;96058.50;10586056;27;1961;-76
2022/12/26 15:08:17;;;;;;;;;;;;;;;7.92;100.00;96058.44;10588180;27;1960;-75
2022/12/26 15:13:26;;;;;;;;;;;;;;;7.91;100.00;96062.19;10553479;27;2097;-74
2022/12/26 15:18:34;;;;;;;;;;;;;;;7.88;100.00;96049.28;10550002;28;2023;-76
2022/12/26 15:23:46;;;;;;;;;;;;;;;7.84;100.00;96045.50;10575898;27;2118;-76
2022/12/26 15:28:55;;;;;;;;;;;;;;;7.84;100.00;96034.78;10552368;27;4428;-76
2022/12/26 15:33:59;;;;;;;;;;;;;;;7.82;100.00;96031.53;10585354;27;1980;-77
2022/12/26 15:39:09;;;;;;;;;;;;;;;7.73;100.00;96041.06;10565170;27;1952;-75
2022/12/26 15:44:40;;;;;;;;;;;;;;;7.72;100.00;96036.78;10551760;28;2011;-75
2022/12/26 15:49:45;;;;;;;;;;;;;;;7.70;100.00;96038.88;10589808;27;2076;-76
2022/12/26 15:54:53;;;;;;;;;;;;;;;7.61;100.00;96043.06;10574264;27;1866;-75
2022/12/26 15:59:59;;;;;;;;;;;;;;;7.61;100.00;96030.47;10575398;27;1965;-77
2022/12/26 16:05:05;;;;;;;;;;;;;;;7.57;100.00;96042.72;10582912;27;1981;-75
2022/12/26 16:10:10;;;;;;;;;;;;;;;7.51;100.00;96035.72;10586270;27;2213;-74
2022/12/26 16:15:19;;;;;;;;;;;;;;;7.54;100.00;96025.31;10551676;27;1861;-75
2022/12/26 16:25:48;;;;;;;;;;;;;;;7.41;100.00;96001.59;10562318;28;1979;-75
2022/12/26 16:30:55;;;;;;;;;;;;;;;7.35;100.00;96004.47;10547487;27;4493;-76
2022/12/26 16:36:05;;;;;;;;;;;;;;;7.33;100.00;95986.00;10565232;27;1886;-75
2022/12/26 16:41:13;;;;;;;;;;;;;;;7.31;100.00;95977.41;10564097;27;1929;-75
2022/12/26 16:46:23;;;;;;;;;;;;;;;7.27;100.00;95992.34;10537642;27;2013;-74
2022/12/26 16:51:29;;;;;;;;;;;;;;;7.23;100.00;95997.34;10542494;27;1951;-76
2022/12/26 16:56:36;;;;;;;;;;;;;;;7.24;100.00;95982.13;10582684;27;2065;-77
2022/12/26 17:01:47;;;;;;;;;;;;;;;7.28;100.00;95993.94;10538497;27;1972;-77
2022/12/26 17:06:53;;;;;;;;;;;;;;;7.21;100.00;95974.59;10564649;27;1906;-77
2022/12/26 17:12:08;;;;;;;;;;;;;;;7.35;100.00;95989.22;10550830;28;2110;-76
2022/12/26 17:17:15;;;;;;;;;;;8.20;99.90;;;7.36;100.00;95982.81;10541880;28;2027;-77
2022/12/26 17:22:21;;;;;;;;;;;8.30;99.90;;;7.43;100.00;96007.50;10563319;28;2082;-77
2022/12/26 17:27:25;;;;;;;;;;;8.40;99.90;;;7.44;100.00;96017.16;10550640;28;4474;-76
2022/12/26 17:32:30;;;;;;;;;;;8.50;99.90;;;7.53;100.00;96006.84;10557608;28;1965;-78
2022/12/26 17:37:36;;;;;;;;;;;8.50;99.90;;;7.55;100.00;95997.50;10566948;28;2045;-74
2022/12/26 17:42:40;;;;;;;;;;;8.70;99.90;;;7.55;100.00;96004.72;10539014;28;2189;-74
2022/12/26 17:47:43;;;;;;;;;;;8.50;99.90;;;7.45;100.00;95994.72;10578893;27;2069;-77
2022/12/26 17:52:47;;;;;;;;;;;8.60;99.90;;;7.35;100.00;96010.63;10583970;27;1921;-79
2022/12/26 17:57:54;;;;;;;;;;;8.50;99.90;;;7.30;100.00;95986.47;10576447;28;1953;-75
2022/12/26 18:02:59;;;;;;;;;;;8.40;99.90;;;7.31;100.00;95988.09;10566346;28;2152;-76
2022/12/26 18:08:07;;;;;;;;;;;8.40;99.90;;;7.32;100.00;96005.78;10555534;28;2026;-74
2022/12/26 18:13:15;;;;;;;;;;;8.40;99.90;;;7.38;100.00;95994.09;10557511;27;1909;-74
2022/12/26 18:18:22;;;;;;;;;;;8.60;99.90;;;7.45;100.00;96001.94;10571082;27;2133;-74
2022/12/26 18:23:33;;;;;;;;;;;8.50;99.90;;;7.47;100.00;96015.88;10570434;27;2046;-74
2022/12/26 18:28:36;;;;;;;;;;;8.50;99.90;;;7.51;100.00;96011.66;10584838;27;2056;-74
2022/12/26 18:33:45;;;;;;;;;;;8.60;99.90;;;7.51;100.00;95993.72;10583905;27;2155;-73
2022/12/26 18:38:50;;;;;;;;;;;8.50;99.90;;;7.53;100.00;96007.66;10594950;27;1996;-73
2022/12/26 18:43:56;;;;;;;;;;;8.60;99.90;;;7.56;100.00;96007.16;10581680;27;1898;-73
2022/12/26 18:49:05;;;;;;;;;;;8.60;99.90;;;7.55;100.00;95994.81;10581566;27;1917;-72
2022/12/26 18:54:10;;;;;;;;;;;8.60;99.90;;;7.54;100.00;95989.75;10577370;27;1907;-72
2022/12/26 18:59:17;;;;;;;;;;;8.60;99.90;;;7.58;100.00;96018.44;10563847;27;1968;-74
2022/12/26 19:04:22;;;;;;;;;;;8.60;99.90;;;7.62;100.00;96004.53;10569372;27;2089;-72
2022/12/26 19:09:36;;;;;;;;;;;8.70;99.90;;;7.58;100.00;96031.81;10583971;27;1922;-73
2022/12/26 19:14:42;;;;;;;;;;;8.70;99.90;;;7.61;100.00;96010.94;10585522;27;1443;-72
2022/12/26 19:19:46;;;;;;;;;;;8.70;99.90;;;7.63;100.00;96024.88;10559128;27;1260;-73
2022/12/26 19:24:54;;;;;;;;;;;8.70;99.90;;;7.65;100.00;95988.81;10575722;27;1641;-72
2022/12/26 19:30:04;;;;;;;;;;;8.70;99.90;;;7.64;100.00;96007.78;10560304;28;4510;-75
2022/12/26 19:35:10;;;;;;;;;;;8.90;99.90;;;7.63;100.00;95995.44;10562852;27;2085;-75
2022/12/26 19:40:20;;;;;;;;;;;8.70;99.90;;;7.60;100.00;96002.13;10587247;27;1682;-76
2022/12/26 19:45:30;;;;;;;;;;;8.70;99.90;;;7.48;100.00;96009.44;10572598;28;1917;-75
2022/12/26 19:50:41;;;;;;;;;;;8.60;99.90;;;7.34;100.00;96009.00;10577368;27;1407;-77
2022/12/26 19:55:45;;;;;;;;;;;8.50;99.90;;;7.28;100.00;96023.38;10588474;27;1185;-74
2022/12/26 20:00:52;;;;;;;;;;;8.40;99.90;;;7.35;100.00;96020.50;10576203;27;1450;-74
2022/12/26 20:05:59;;;;;;;;;;;8.40;99.90;;;7.26;100.00;96006.78;10560814;28;1985;-76
2022/12/26 20:11:03;;;;;;;;;;;8.40;99.90;;;7.15;100.00;95999.66;10582291;27;1419;-72
2022/12/26 20:16:07;;;;;;;;;;;8.30;99.90;;;7.15;100.00;96005.00;10579123;27;1170;-74
2022/12/26 20:21:31;;;;;;;;;;;8.30;99.90;;;7.12;100.00;95986.75;10587892;27;1569;-73
2022/12/26 20:26:35;;;;;;;;;;;8.20;99.90;;;7.13;100.00;95983.06;10542948;27;4460;-74
2022/12/26 20:31:43;;;;;;;;;;;8.20;99.90;;;7.16;100.00;95974.53;10571134;27;2036;-72
2022/12/26 20:36:48;;;;;;;;;;;8.20;99.90;;;7.17;100.00;95973.47;10605574;27;1137;-77
2022/12/26 20:41:53;;;;;;;;;;;8.70;99.90;;;7.28;100.00;95975.22;10572602;27;1707;-74
2022/12/26 20:47:00;;;;;;;;;;;8.30;99.90;;;7.38;100.00;95983.41;10594524;27;1984;-74
2022/12/26 20:52:12;;;;;;;;;;;8.40;99.90;;;7.42;100.00;95973.00;10586785;27;1424;-74
2022/12/26 20:57:19;;;;;;;;;;;8.50;99.90;;;7.40;100.00;95996.53;10578046;27;1502;-73
2022/12/26 21:02:23;;;;;;;;;;;8.50;99.90;;;7.54;100.00;96019.97;10575508;27;1678;-74
2022/12/26 21:07:28;;;;;;;;;;;8.50;99.90;;;7.53;100.00;96039.75;10572402;28;1984;-76
2022/12/26 21:12:37;;;;;;;;;;;8.60;99.90;;;7.34;100.00;96161.44;10581075;28;1579;-76
2022/12/26 21:17:42;;;;;;;;;;;7.50;99.90;;;5.61;100.00;96158.09;10581066;27;1584;-72
2022/12/26 21:22:49;;;;;;;;;;;7.30;99.90;;;5.23;100.00;96170.03;10572277;28;1605;-73
2022/12/26 21:27:53;;;;;;;;;;;6.50;99.90;;;5.19;100.00;96179.50;10582929;28;4436;-72
2022/12/26 21:33:07;;;;;;;;;;;6.30;99.90;;;5.22;100.00;96199.59;10565424;28;2092;-72
2022/12/26 21:38:11;;;;;;;;;;;6.20;99.90;;;5.15;100.00;96189.00;10547612;28;1972;-73
2022/12/26 21:43:14;;;;;;;;;;;6.20;99.90;;;5.28;100.00;96209.31;10582911;27;1972;-74
2022/12/26 21:48:18;;;;;;;;;;;6.20;99.90;;;5.24;100.00;96208.97;10560917;27;1937;-73
2022/12/26 21:53:25;;;;;;;;;;;6.30;99.90;;;5.33;100.00;96214.75;10571514;27;2006;-72
2022/12/26 21:58:29;;;;;;;;;;;6.30;99.90;;;5.36;100.00;96212.47;10563011;27;2004;-71
2022/12/26 22:08:59;;;;;;;;;;;6.40;99.90;;;5.51;100.00;96209.34;10551753;27;2133;-71
2022/12/26 22:14:03;;;;;;;;;;;6.50;99.90;;;5.58;100.00;96209.22;10577650;27;2327;-71
2022/12/26 22:19:07;;;;;;;;;;;6.50;99.90;;;5.70;100.00;96229.53;10564101;27;1973;-73
2022/12/26 22:24:15;;;;;;;;;;;6.60;99.90;;;5.76;100.00;96225.13;10578428;27;1977;-72
2022/12/26 22:29:20;;;;;;;;;;;6.70;99.90;;;5.76;100.00;96216.31;10585300;27;4496;-73
2022/12/26 22:34:27;;;;;;;;;;;6.70;99.90;;;5.77;100.00;96202.72;10573230;27;1933;-72
2022/12/26 22:39:30;;;;;;;;;;;6.80;99.90;;;5.87;100.00;96213.66;10579184;27;2092;-72
2022/12/26 22:44:35;;;;;;;;;;;6.80;99.90;;;5.96;100.00;96238.94;10563923;27;1992;-72
2022/12/26 22:49:38;;;;;;;;;;;6.90;99.90;;;6.02;100.00;96241.72;10554832;27;1999;-74
2022/12/26 22:54:45;;;;;;;;;;;7.00;99.90;;;5.97;100.00;96245.09;10589110;27;1938;-77
2022/12/26 22:59:50;;;;;;;;;;;7.00;99.90;;;6.00;100.00;96244.66;10571969;27;1906;-72
2022/12/26 23:05:21;;;;;;;;;;;6.40;99.90;;;5.96;100.00;96249.63;10552779;27;1926;-71
2022/12/26 23:10:27;;;;;;;;;;;7.00;99.90;;;6.00;100.00;96249.16;10552217;28;2086;-72
2022/12/26 23:15:36;;;;;;;;;;;7.00;99.90;;;6.05;100.00;96242.09;10557646;27;2114;-72
2022/12/26 23:26:04;;;;;;;;;;;7.00;99.90;;;6.09;100.00;96263.78;10573190;27;2094;-71
2022/12/26 23:31:08;;;;;;;;;;;7.00;99.90;;;6.09;100.00;96255.78;10557157;28;4429;-71
2022/12/26 23:36:13;;;;;;;;;;;7.10;99.90;;;6.02;100.00;96260.41;10561715;27;1950;-70
2022/12/26 23:41:16;;;;;;;;;;;7.10;99.90;;;6.06;100.00;96261.59;10566452;27;2000;-71
2022/12/26 23:46:21;;;;;;;;;;;7.00;99.90;;;6.04;100.00;96269.00;10567619;27;1997;-71
2022/12/26 23:51:31;;;;;;;;;;;7.00;99.90;;;6.02;100.00;96279.09;10568875;28;1968;-72
2022/12/26 23:56:36;;;;;;;;;;;7.00;99.90;;;6.02;100.00;96285.25;10560549;28;1922;-72
